Time;durP1;ratioP1;P1;durP2;ratioP2;P2;SDS_P1;SDS_P2;PMS_P1;PMS_P2;Temp;Humidity;BMP_temperature;BMP_pressure;BME280_temperature;BME280_humidity;BME280_pressure;Samples;Min_cycle;Max_cycle;Signal;HPM_P1;HPM_P2
2021/11/24 00:00:49;;;;;;;;;30.25;29.25;;;;;8.44;63.14;102050.50;2090949;28;48632;-62
2021/11/24 00:01:50;;;;;;;;;30.00;27.50;;;;;8.43;63.24;102056.69;2091392;28;45652;-62
2021/11/24 00:02:51;;;;;;;;;34.00;30.25;;;;;8.44;63.21;102050.50;2091771;28;47676;-62
2021/11/24 00:03:52;;;;;;;;;29.80;27.00;;;;;8.43;63.28;102046.09;2092165;28;47318;-62
2021/11/24 00:04:52;;;;;;;;;26.25;24.00;;;;;8.41;63.14;102047.84;2091134;28;48728;-63
2021/11/24 00:05:52;;;;;;;;;30.00;29.00;;;;;8.40;63.35;102049.59;2094861;28;47849;-62
2021/11/24 00:06:53;;;;;;;;;25.00;25.00;;;;;8.39;63.22;102055.78;2083197;28;46879;-62
2021/11/24 00:07:53;;;;;;;;;28.00;22.75;;;;;8.39;63.24;102052.25;2090241;28;47413;-62
2021/11/24 00:08:54;;;;;;;;;31.00;27.25;;;;;8.38;63.32;102051.31;2090867;28;48252;-62
2021/11/24 00:09:55;;;;;;;;;31.00;30.00;;;;;8.39;63.13;102047.84;2085712;28;46334;-62
2021/11/24 00:10:55;;;;;;;;;27.75;26.25;;;;;8.38;63.18;102043.38;2087722;28;46254;-65
2021/11/24 00:11:56;;;;;;;;;22.25;21.50;;;;;8.38;63.24;102040.75;2091270;28;47094;-63
2021/11/24 00:12:57;;;;;;;;;23.25;20.75;;;;;8.39;63.34;102036.38;2091282;28;48143;-62
2021/11/24 00:13:58;;;;;;;;;29.00;26.80;;;;;8.37;63.34;102036.31;2091802;27;47172;-62
2021/11/24 00:14:58;;;;;;;;;31.75;27.50;;;;;8.37;63.20;102032.78;2091682;28;48012;-62
2021/11/24 00:15:59;;;;;;;;;29.50;24.50;;;;;8.37;63.37;102032.78;2090982;28;46798;-62
2021/11/24 00:16:59;;;;;;;;;24.25;20.75;;;;;8.37;63.18;102033.69;2099524;27;48617;-62
2021/11/24 00:18:00;;;;;;;;;29.75;24.50;;;;;8.36;63.26;102034.56;2099470;28;47694;-63
2021/11/24 00:19:00;;;;;;;;;26.75;25.50;;;;;8.36;63.15;102033.66;2090926;28;48237;-62
2021/11/24 00:20:01;;;;;;;;;25.75;24.75;;;;;8.36;63.28;102036.31;2090923;28;47402;-63
2021/11/24 00:21:02;;;;;;;;;29.00;26.25;;;;;8.35;63.32;102034.56;2091189;28;47278;-62
2021/11/24 00:22:02;;;;;;;;;27.00;24.25;;;;;8.36;63.36;102036.31;2091522;28;47287;-62
2021/11/24 00:23:03;;;;;;;;;33.00;29.25;;;;;8.36;63.35;102036.31;2091688;28;45326;-62
2021/11/24 00:24:04;;;;;;;;;29.50;28.25;;;;;8.34;63.31;102031.03;2099276;28;47213;-65
2021/11/24 00:25:06;;;;;;;;;23.50;21.25;;;;;8.34;63.42;102031.03;2099487;28;47399;-62
2021/11/24 00:26:06;;;;;;;;;26.20;24.80;;;;;8.34;63.66;102036.31;2091824;28;47574;-62
2021/11/24 00:27:07;;;;;;;;;26.50;25.25;;;;;8.33;63.31;102034.50;2090859;28;47458;-62
2021/11/24 00:28:08;;;;;;;;;30.75;28.75;;;;;8.32;63.41;102034.50;2091068;28;45565;-63
2021/11/24 00:29:08;;;;;;;;;27.50;26.00;;;;;8.32;63.49;102034.50;2091589;28;48132;-62
2021/11/24 00:30:09;;;;;;;;;29.50;27.75;;;;;8.32;63.56;102037.16;2091583;28;48188;-62
2021/11/24 00:31:09;;;;;;;;;29.25;29.25;;;;;8.31;63.39;102036.25;2091707;28;47420;-62
2021/11/24 00:32:10;;;;;;;;;30.00;26.50;;;;;8.32;63.30;102038.03;2091546;28;46193;-62
2021/11/24 00:33:10;;;;;;;;;27.25;24.50;;;;;8.32;63.44;102034.50;2091629;28;47123;-62
2021/11/24 00:34:11;;;;;;;;;29.75;28.75;;;;;8.30;63.54;102026.56;2091543;28;46945;-63
2021/11/24 00:35:11;;;;;;;;;28.50;26.00;;;;;8.31;63.35;102030.97;2091449;27;45460;-62
2021/11/24 00:36:12;;;;;;;;;28.25;28.25;;;;;8.30;63.46;102031.84;2091586;28;46352;-62
2021/11/24 00:37:12;;;;;;;;;35.75;31.25;;;;;8.30;63.42;102029.19;2091571;28;45257;-62
2021/11/24 00:38:13;;;;;;;;;30.75;29.25;;;;;8.30;63.42;102034.50;2091318;28;47378;-62
2021/11/24 00:39:13;;;;;;;;;27.25;24.75;;;;;8.31;63.33;102030.09;2083066;28;47172;-62
2021/11/24 00:40:14;;;;;;;;;27.75;26.75;;;;;8.30;63.47;102031.84;2090670;28;47232;-62
2021/11/24 00:41:14;;;;;;;;;26.50;25.75;;;;;8.30;63.61;102023.91;2091714;28;47106;-62
2021/11/24 00:42:16;;;;;;;;;28.50;26.75;;;;;8.30;63.50;102028.31;2083959;28;48125;-62
2021/11/24 00:43:16;;;;;;;;;26.00;25.20;;;;;8.29;63.52;102022.13;2089414;28;47326;-62
2021/11/24 00:44:17;;;;;;;;;36.75;32.75;;;;;8.30;63.29;102028.31;2091479;28;47753;-63
2021/11/24 00:45:18;;;;;;;;;29.50;28.25;;;;;8.29;63.56;102027.44;2091414;28;45232;-62
2021/11/24 00:46:18;;;;;;;;;28.00;28.00;;;;;8.29;63.67;102030.06;2098456;28;46182;-62
2021/11/24 00:47:19;;;;;;;;;26.50;23.50;;;;;8.30;63.34;102028.31;2099014;28;47323;-62
2021/11/24 00:48:21;;;;;;;;;26.25;25.00;;;;;8.29;63.52;102026.53;2091713;28;48125;-62
2021/11/24 00:49:22;;;;;;;;;30.00;27.00;;;;;8.27;63.54;102023.88;2091311;28;47900;-62
2021/11/24 00:50:22;;;;;;;;;26.75;26.75;;;;;8.27;63.66;102022.13;2091051;28;46332;-62
2021/11/24 00:51:23;;;;;;;;;27.25;24.25;;;;;8.27;63.64;102022.13;2090783;28;46917;-62
2021/11/24 00:52:24;;;;;;;;;27.75;26.00;;;;;8.25;63.60;102025.59;2091700;27;45531;-62
2021/11/24 00:53:24;;;;;;;;;30.75;27.75;;;;;8.25;63.56;102023.84;2091435;27;47210;-62
2021/11/24 00:54:25;;;;;;;;;31.00;27.75;;;;;8.25;63.76;102025.59;2091493;28;46226;-62
2021/11/24 00:55:25;;;;;;;;;27.75;27.75;;;;;8.25;63.66;102029.13;2091380;27;45532;-62
2021/11/24 00:56:26;;;;;;;;;34.75;30.25;;;;;8.26;63.47;102024.75;2091775;28;47351;-61
2021/11/24 00:57:26;;;;;;;;;29.50;29.00;;;;;8.25;63.79;102028.25;2098979;28;48286;-62
2021/11/24 00:58:27;;;;;;;;;27.00;24.50;;;;;8.26;63.54;102030.06;2099557;28;47393;-64
2021/11/24 00:59:27;;;;;;;;;31.00;29.50;;;;;8.23;63.66;102022.94;2091450;28;46216;-62
2021/11/24 01:00:28;;;;;;;;;31.75;29.00;;;;;8.23;63.66;102022.94;2093978;28;47663;-62
2021/11/24 01:01:29;;;;;;;;;33.60;29.60;;;;;8.24;63.79;102016.78;2094101;27;47227;-62
2021/11/24 01:02:30;;;;;;;;;35.60;30.40;;;;;8.24;63.77;102010.63;2096939;28;47011;-62
2021/11/24 01:03:30;;;;;;;;;25.00;25.00;;;;;8.24;63.89;102007.97;2101181;28;48374;-62
2021/11/24 01:04:31;;;;;;;;;24.00;22.50;;;;;8.22;63.64;102005.31;2086246;28;48311;-62
2021/11/24 01:05:31;;;;;;;;;25.50;22.75;;;;;8.23;63.64;102006.19;2093121;28;46669;-62
2021/11/24 01:06:32;;;;;;;;;31.25;25.75;;;;;8.22;63.47;102009.72;2110681;27;47619;-62
2021/11/24 01:07:32;;;;;;;;;29.75;26.50;;;;;8.21;63.52;102006.19;2093827;27;45612;-62
2021/11/24 01:08:33;;;;;;;;;29.75;26.75;;;;;8.22;63.65;102001.78;2093602;28;48431;-62
2021/11/24 01:09:34;;;;;;;;;26.00;24.75;;;;;8.20;63.67;102007.06;2093694;27;48101;-62
2021/11/24 01:10:34;;;;;;;;;32.75;28.75;;;;;8.20;63.72;102004.41;2110536;27;46808;-62
2021/11/24 01:11:35;;;;;;;;;33.25;27.00;;;;;8.20;63.73;102003.53;2102407;27;47065;-62
2021/11/24 01:12:37;;;;;;;;;25.00;22.20;;;;;8.18;63.55;101998.25;2093830;28;46473;-62
2021/11/24 01:13:37;;;;;;;;;26.60;25.00;;;;;8.19;63.69;102005.28;2094784;28;48064;-61
2021/11/24 01:14:38;;;;;;;;;29.25;29.00;;;;;8.18;63.70;102006.16;2093498;28;47548;-62
2021/11/24 01:15:39;;;;;;;;;30.50;26.75;;;;;8.18;63.68;102008.81;2094301;28;46001;-62
2021/11/24 01:16:39;;;;;;;;;26.00;25.00;;;;;8.17;63.66;102004.41;2102628;27;48156;-62
2021/11/24 01:17:40;;;;;;;;;27.00;25.75;;;;;8.18;63.75;102002.66;2105508;27;48075;-63
2021/11/24 01:18:40;;;;;;;;;27.00;25.75;;;;;8.16;63.79;102000.00;2098449;28;47334;-62
2021/11/24 01:19:41;;;;;;;;;28.25;26.75;;;;;8.16;63.82;101999.09;2093785;28;46206;-61
2021/11/24 01:20:41;;;;;;;;;27.25;25.00;;;;;8.16;63.90;101996.47;2093954;27;47102;-62
2021/11/24 01:21:42;;;;;;;;;29.75;25.75;;;;;8.16;63.70;101996.47;2094538;27;47699;-62
2021/11/24 01:22:42;;;;;;;;;29.50;27.25;;;;;8.16;63.99;101996.47;2093407;28;47254;-62
2021/11/24 01:23:45;;;;;;;;;27.75;26.50;;;;;8.15;63.82;101995.56;2094857;28;46015;-62
2021/11/24 01:24:45;;;;;;;;;31.60;28.40;;;;;8.16;63.83;101999.09;2094729;27;47531;-61
2021/11/24 01:25:46;;;;;;;;;27.75;26.25;;;;;8.16;63.62;101996.47;2094395;28;46520;-62
2021/11/24 01:26:47;;;;;;;;;25.50;21.25;;;;;8.15;63.90;101992.94;2094674;27;47942;-63
2021/11/24 01:27:47;;;;;;;;;29.75;26.25;;;;;8.14;63.72;101987.63;2094324;27;46516;-62
2021/11/24 01:28:48;;;;;;;;;34.25;27.75;;;;;8.14;63.89;101992.94;2094782;28;47360;-62
2021/11/24 01:29:48;;;;;;;;;29.25;29.25;;;;;8.15;63.80;101994.69;2094962;28;47120;-62
2021/11/24 01:30:49;;;;;;;;;25.25;24.75;;;;;8.14;63.69;101991.16;2093743;28;48314;-62
2021/11/24 01:31:50;;;;;;;;;24.60;21.80;;;;;8.14;63.83;101995.56;2094661;28;48593;-62
2021/11/24 01:32:51;;;;;;;;;26.50;26.50;;;;;8.13;63.96;101994.69;2102575;27;46047;-62
2021/11/24 01:33:51;;;;;;;;;35.50;29.25;;;;;8.13;63.87;101992.03;2090989;28;46989;-62
2021/11/24 01:34:52;;;;;;;;;27.00;25.25;;;;;8.12;63.91;101990.25;2090563;28;47175;-62
2021/11/24 01:35:53;;;;;;;;;24.25;21.75;;;;;8.10;63.78;101983.16;2094321;27;46934;-62
2021/11/24 01:36:53;;;;;;;;;27.00;25.75;;;;;8.09;64.10;101978.75;2094237;27;46857;-62
2021/11/24 01:37:54;;;;;;;;;27.25;27.00;;;;;8.08;64.06;101982.28;2094878;28;45331;-62
2021/11/24 01:38:54;;;;;;;;;31.25;27.75;;;;;8.07;63.82;101981.41;2087962;28;47312;-62
2021/11/24 01:39:55;;;;;;;;;27.50;26.00;;;;;8.07;63.88;101976.09;2092679;28;47709;-62
2021/11/24 01:40:56;;;;;;;;;29.25;28.00;;;;;8.07;63.84;101977.88;2100854;27;46682;-62
2021/11/24 01:41:57;;;;;;;;;27.25;23.25;;;;;8.07;64.00;101975.22;2089306;28;45353;-61
2021/11/24 01:42:58;;;;;;;;;24.00;21.50;;;;;8.08;63.96;101977.88;2080160;28;47267;-61
2021/11/24 01:43:58;;;;;;;;;25.75;25.00;;;;;8.06;64.04;101966.41;2101225;28;48035;-62
2021/11/24 01:45:00;;;;;;;;;27.25;26.50;;;;;8.06;63.93;101966.41;2094040;27;45492;-61
2021/11/24 01:46:00;;;;;;;;;25.80;24.00;;;;;8.06;64.08;101981.38;2093617;28;47572;-61
2021/11/24 01:47:03;;;;;;;;;24.50;19.75;;;;;8.05;64.06;101979.63;2099436;28;47516;-61
2021/11/24 01:48:05;;;;;;;;;24.80;22.20;;;;;8.04;64.03;101978.72;2096530;28;45374;-61
2021/11/24 01:49:06;;;;;;;;;27.40;23.00;;;;;8.03;64.03;101978.72;2100250;27;48024;-61
2021/11/24 01:50:07;;;;;;;;;27.50;24.50;;;;;8.02;63.94;101982.25;2099449;28;46824;-62
2021/11/24 01:51:08;;;;;;;;;27.40;24.20;;;;;8.01;64.30;101975.19;2097228;27;47410;-61
2021/11/24 01:52:08;;;;;;;;;27.75;25.50;;;;;8.01;64.07;101976.06;2096079;27;47367;-62
2021/11/24 01:53:09;;;;;;;;;27.00;26.25;;;;;8.00;63.88;101968.97;2102082;28;45741;-61
2021/11/24 01:54:12;;;;;;;;;28.25;27.50;;;;;8.00;64.29;101976.03;2097769;28;47244;-62
2021/11/24 01:55:15;;;;;;;;;27.60;27.60;;;;;7.97;64.29;101964.56;2101288;27;47415;-61
2021/11/24 01:56:15;;;;;;;;;28.60;27.80;;;;;7.98;64.15;101965.44;2096487;28;47285;-61
2021/11/24 01:57:17;;;;;;;;;23.25;23.00;;;;;7.98;64.02;101966.31;2098399;27;47200;-61
2021/11/24 01:58:18;;;;;;;;;27.80;23.80;;;;;7.98;64.11;101970.72;2108288;27;47493;-61
2021/11/24 01:59:18;;;;;;;;;28.50;25.75;;;;;7.97;64.22;101961.03;2096978;27;47128;-63
2021/11/24 02:00:23;;;;;;;;;25.25;23.75;;;;;7.97;64.16;101963.66;2100575;27;45358;-61
2021/11/24 02:01:23;;;;;;;;;29.20;25.80;;;;;7.97;64.29;101964.56;2093044;28;47529;-62
2021/11/24 02:02:26;;;;;;;;;31.50;27.50;;;;;7.97;64.42;101955.75;2093738;28;48293;-61
2021/11/24 02:03:27;;;;;;;;;27.40;24.40;;;;;7.96;64.16;101964.53;2100626;28;45149;-61
2021/11/24 02:04:27;;;;;;;;;28.75;28.00;;;;;7.94;64.18;101958.38;2089310;28;47371;-61
2021/11/24 02:05:28;;;;;;;;;25.00;24.00;;;;;7.94;64.27;101961.91;2101151;28;45847;-61
2021/11/24 02:06:29;;;;;;;;;24.75;22.75;;;;;7.94;64.55;101955.72;2109738;27;47799;-62
2021/11/24 02:07:30;;;;;;;;;23.40;22.00;;;;;7.93;64.21;101953.97;2109032;27;45508;-62
2021/11/24 02:08:30;;;;;;;;;27.75;25.00;;;;;7.92;64.16;101958.34;2102324;27;45144;-62
2021/11/24 02:09:31;;;;;;;;;27.25;26.25;;;;;7.92;64.28;101957.47;2096317;27;47018;-62
2021/11/24 02:10:31;;;;;;;;;31.75;30.00;;;;;7.91;64.17;101955.72;2088806;28;46970;-62
2021/11/24 02:11:38;;;;;;;;;27.25;24.50;;;;;7.90;64.49;101953.94;2091339;27;47448;-62
2021/11/24 02:12:39;;;;;;;;;31.40;25.60;;;;;7.89;64.41;101957.44;2097081;27;45704;-62
2021/11/24 02:13:40;;;;;;;;;31.00;30.40;;;;;7.88;64.40;101951.28;2092529;28;47503;-62
2021/11/24 02:14:42;;;;;;;;;30.80;28.80;;;;;7.88;64.16;101953.03;2100384;27;45738;-62
2021/11/24 02:15:43;;;;;;;;;28.60;27.20;;;;;7.88;64.56;101950.41;2092986;28;47140;-62
2021/11/24 02:16:48;;;;;;;;;29.75;27.25;;;;;7.87;64.39;101954.75;2091851;28;45364;-62
2021/11/24 02:17:51;;;;;;;;;26.60;24.00;;;;;7.87;64.38;101951.25;2090381;28;47734;-62
2021/11/24 02:18:51;;;;;;;;;30.60;28.20;;;;;7.88;64.27;101959.22;2090889;28;47274;-63
2021/11/24 02:19:52;;;;;;;;;34.50;31.50;;;;;7.87;64.66;101951.25;2092206;28;45965;-62
2021/11/24 02:20:52;;;;;;;;;29.00;28.75;;;;;7.86;64.43;101958.28;2092445;28;47069;-62
2021/11/24 02:21:53;;;;;;;;;32.25;26.50;;;;;7.85;64.42;101956.50;2092640;28;47811;-62
2021/11/24 02:22:53;;;;;;;;;27.50;26.00;;;;;7.86;64.44;101957.41;2092351;28;45331;-62
2021/11/24 02:23:54;;;;;;;;;26.50;26.00;;;;;7.85;64.37;101958.28;2092381;28;47386;-62
2021/11/24 02:24:54;;;;;;;;;31.25;29.75;;;;;7.85;64.48;101960.91;2092474;28;47015;-62
2021/11/24 02:25:55;;;;;;;;;26.50;24.75;;;;;7.84;64.47;101960.03;2092484;28;48014;-65
2021/11/24 02:26:56;;;;;;;;;30.50;28.00;;;;;7.83;64.65;101952.97;2091644;28;47044;-62
2021/11/24 02:27:57;;;;;;;;;28.00;27.00;;;;;7.83;64.58;101944.16;2092090;28;45686;-62
2021/11/24 02:28:57;;;;;;;;;29.00;26.75;;;;;7.84;64.44;101948.56;2092225;28;47435;-65
2021/11/24 02:29:58;;;;;;;;;22.25;22.25;;;;;7.84;64.45;101944.19;2092080;28;47589;-62
2021/11/24 02:30:58;;;;;;;;;20.50;20.50;;;;;7.84;64.41;101944.19;2091648;28;47735;-62
2021/11/24 02:32:01;;;;;;;;;26.50;23.00;;;;;7.84;64.65;101938.00;2092181;28;46065;-62
2021/11/24 02:33:03;;;;;;;;;25.00;25.00;;;;;7.84;64.71;101940.66;2092460;28;45439;-62
2021/11/24 02:34:04;;;;;;;;;29.20;25.60;;;;;7.83;64.56;101937.13;2092384;27;47068;-62
2021/11/24 02:35:05;;;;;;;;;30.25;25.50;;;;;7.83;64.51;101939.75;2091843;28;47397;-62
2021/11/24 02:36:07;;;;;;;;;25.50;23.75;;;;;7.83;64.32;101934.47;2094421;28;46435;-62
2021/11/24 02:37:07;;;;;;;;;30.80;26.00;;;;;7.83;64.36;101936.25;2094596;27;48328;-62
2021/11/24 02:38:08;;;;;;;;;30.00;26.00;;;;;7.81;64.51;101933.59;2091245;28;46918;-62
2021/11/24 02:39:10;;;;;;;;;29.25;25.75;;;;;7.81;64.52;101932.69;2083839;28;47407;-62
2021/11/24 02:40:11;;;;;;;;;23.40;21.00;;;;;7.81;64.37;101936.22;2091519;28;46809;-62
2021/11/24 02:41:12;;;;;;;;;29.40;28.00;;;;;7.81;64.71;101936.22;2091702;27;45381;-63
2021/11/24 02:42:13;;;;;;;;;30.00;26.75;;;;;7.81;64.42;101930.06;2084072;28;47286;-62
2021/11/24 02:43:13;;;;;;;;;26.00;26.00;;;;;7.81;64.56;101932.69;2094784;28;47712;-62
2021/11/24 02:44:16;;;;;;;;;29.75;26.25;;;;;7.81;64.61;101936.22;2099982;27;47182;-62
2021/11/24 02:45:16;;;;;;;;;34.40;28.80;;;;;7.80;64.73;101926.53;2083363;28;47475;-63
2021/11/24 02:46:17;;;;;;;;;26.00;23.00;;;;;7.81;64.55;101924.78;2088625;28;47526;-62
2021/11/24 02:47:21;;;;;;;;;23.00;20.50;;;;;7.80;64.53;101926.53;2092482;28;47351;-62
2021/11/24 02:48:22;;;;;;;;;31.80;30.80;;;;;7.79;64.66;101922.13;2092293;28;45412;-62
2021/11/24 02:49:22;;;;;;;;;33.50;29.75;;;;;7.79;64.52;101922.13;2092336;27;46849;-62
2021/11/24 02:50:23;;;;;;;;;30.75;26.50;;;;;7.78;64.51;101920.34;2092471;27;47329;-62
2021/11/24 02:51:23;;;;;;;;;30.00;26.25;;;;;7.77;64.50;101918.59;2092575;28;47108;-62
2021/11/24 02:52:24;;;;;;;;;29.75;26.50;;;;;7.78;64.63;101916.81;2092071;28;47288;-62
2021/11/24 02:53:29;;;;;;;;;28.75;26.25;;;;;7.78;64.60;101920.34;2092182;27;47540;-62
2021/11/24 02:54:30;;;;;;;;;33.40;31.00;;;;;7.78;64.45;101917.72;2092214;27;48085;-63
2021/11/24 02:55:30;;;;;;;;;25.50;24.50;;;;;7.79;64.72;101921.25;2092435;28;46322;-62
2021/11/24 02:56:31;;;;;;;;;25.00;25.00;;;;;7.79;64.63;101913.31;2091810;28;47725;-62
2021/11/24 02:57:41;;;;;;;;;31.75;29.50;;;;;7.76;64.65;101911.53;2091609;28;47761;-61
2021/11/24 02:58:41;;;;;;;;;30.60;27.00;;;;;7.77;64.72;101909.78;2092416;28;46717;-62
2021/11/24 02:59:42;;;;;;;;;30.50;26.00;;;;;7.75;64.62;101914.13;2092061;28;47050;-62
2021/11/24 03:00:42;;;;;;;;;28.00;26.75;;;;;7.75;64.71;101911.50;2091574;28;47145;-62
2021/11/24 03:01:43;;;;;;;;;28.25;27.00;;;;;7.73;64.79;101911.47;2092753;28;46967;-62
2021/11/24 03:02:45;;;;;;;;;30.75;28.00;;;;;7.74;64.54;101907.06;2092250;28;47850;-62
2021/11/24 03:03:45;;;;;;;;;32.00;29.40;;;;;7.75;64.50;101903.56;2092294;28;47190;-62
2021/11/24 03:04:46;;;;;;;;;28.50;25.75;;;;;7.74;64.72;101907.97;2091457;28;46804;-62
2021/11/24 03:05:47;;;;;;;;;31.00;29.00;;;;;7.74;64.71;101900.03;2093298;28;47189;-62
2021/11/24 03:06:47;;;;;;;;;31.75;31.00;;;;;7.73;64.74;101903.56;2091561;28;48248;-63
2021/11/24 03:07:48;;;;;;;;;27.75;26.25;;;;;7.73;64.63;101898.25;2084272;28;46792;-62
2021/11/24 03:08:48;;;;;;;;;27.50;25.25;;;;;7.73;64.76;101906.19;2091868;27;48032;-62
2021/11/24 03:09:52;;;;;;;;;31.25;27.75;;;;;7.73;64.62;101900.03;2086880;28;48197;-62
2021/11/24 03:10:52;;;;;;;;;26.80;26.20;;;;;7.73;64.60;101897.38;2089016;28;48223;-62
2021/11/24 03:11:54;;;;;;;;;29.75;25.00;;;;;7.73;64.52;101895.63;2085753;28;48225;-62
2021/11/24 03:12:56;;;;;;;;;28.20;26.40;;;;;7.72;64.67;101885.94;2091895;28;47820;-62
2021/11/24 03:13:56;;;;;;;;;23.80;17.80;;;;;7.72;64.83;101890.34;2093173;27;45371;-62
2021/11/24 03:14:57;;;;;;;;;16.50;15.25;;;;;7.71;64.65;101889.44;2092074;28;48335;-62
2021/11/24 03:15:57;;;;;;;;;31.50;29.50;;;;;7.71;64.57;101885.91;2092980;28;48206;-62
2021/11/24 03:16:57;;;;;;;;;29.00;27.50;;;;;7.70;64.74;101885.03;2092452;28;46084;-65
2021/11/24 03:17:58;;;;;;;;;35.75;30.25;;;;;7.70;64.69;101886.78;2091382;28;46963;-62
2021/11/24 03:18:59;;;;;;;;;30.00;26.00;;;;;7.67;64.52;101880.63;2092859;28;46518;-62
2021/11/24 03:19:59;;;;;;;;;31.25;29.50;;;;;7.69;64.61;101883.28;2092770;27;47104;-62
2021/11/24 03:21:00;;;;;;;;;29.00;26.00;;;;;7.68;64.62;101878.84;2092263;28;45369;-62
2021/11/24 03:22:00;;;;;;;;;28.25;27.00;;;;;7.67;64.58;101880.63;2092996;28;46353;-62
2021/11/24 03:23:01;;;;;;;;;29.75;27.75;;;;;7.67;64.51;101880.63;2091787;27;47418;-63
2021/11/24 03:24:01;;;;;;;;;27.50;23.00;;;;;7.67;64.30;101875.34;2092503;27;48349;-62
2021/11/24 03:25:03;;;;;;;;;26.25;23.50;;;;;7.67;64.79;101877.09;2092837;28;46598;-67
2021/11/24 03:26:03;;;;;;;;;36.60;30.20;;;;;7.66;64.81;101876.22;2092008;28;47876;-62
2021/11/24 03:27:04;;;;;;;;;27.50;26.50;;;;;7.67;64.91;101870.06;2092752;28;47362;-62
2021/11/24 03:28:05;;;;;;;;;30.50;29.00;;;;;7.68;64.69;101865.66;2092708;28;45291;-64
2021/11/24 03:29:05;;;;;;;;;27.75;25.50;;;;;7.68;64.84;101876.22;2091559;28;47964;-62
2021/11/24 03:30:18;;;;;;;;;26.75;25.00;;;;;7.69;64.85;101867.41;2092118;27;47897;-62
2021/11/24 03:31:19;;;;;;;;;29.60;28.20;;;;;7.68;64.75;101863.88;2092726;28;48430;-62
2021/11/24 03:32:20;;;;;;;;;36.25;31.00;;;;;7.67;64.60;101864.75;2091846;28;47405;-62
2021/11/24 03:33:20;;;;;;;;;26.60;25.40;;;;;7.67;64.67;101863.88;2091714;28;48315;-62
2021/11/24 03:34:21;;;;;;;;;30.00;27.75;;;;;7.67;64.69;101870.06;2089327;28;47951;-62
2021/11/24 03:35:22;;;;;;;;;34.00;30.25;;;;;7.66;64.78;101865.63;2090426;28;46986;-62
2021/11/24 03:36:23;;;;;;;;;26.00;25.80;;;;;7.66;64.93;101872.69;2092539;27;47423;-62
2021/11/24 03:37:24;;;;;;;;;27.25;25.75;;;;;7.66;64.71;101872.69;2091937;28;47432;-61
2021/11/24 03:38:24;;;;;;;;;31.25;26.50;;;;;7.65;64.80;101878.84;2090214;28;47118;-62
2021/11/24 03:39:25;;;;;;;;;39.50;32.75;;;;;7.66;64.99;101878.84;2085099;28;46336;-62
2021/11/24 03:40:30;;;;;;;;;30.75;27.00;;;;;7.67;64.34;101869.16;2096982;28;48174;-62
2021/11/24 03:41:30;;;;;;;;;27.40;26.20;;;;;7.68;64.88;101868.28;2095107;27;48395;-62
2021/11/24 03:42:32;;;;;;;;;27.00;25.75;;;;;7.68;64.87;101869.19;2099483;28;46643;-62
2021/11/24 03:43:33;;;;;;;;;35.40;32.20;;;;;7.67;64.91;101871.81;2095561;28;45211;-62
2021/11/24 03:44:34;;;;;;;;;29.25;27.50;;;;;7.67;64.61;101864.75;2095179;28;46444;-62
2021/11/24 03:45:36;;;;;;;;;36.25;33.75;;;;;7.68;64.93;101860.38;2099467;27;47364;-63
2021/11/24 03:46:36;;;;;;;;;28.20;27.40;;;;;7.69;64.87;101859.50;2094598;27;47372;-62
2021/11/24 03:47:37;;;;;;;;;27.00;24.50;;;;;7.70;64.87;101866.53;2097261;27;47262;-61
2021/11/24 03:48:37;;;;;;;;;24.75;24.25;;;;;7.72;64.89;101862.16;2099471;28;46446;-62
2021/11/24 03:49:38;;;;;;;;;23.50;23.50;;;;;7.74;64.79;101856.88;2095052;27;48019;-62
2021/11/24 03:50:39;;;;;;;;;38.00;33.00;;;;;7.74;65.06;101857.75;2098583;27;47369;-62
2021/11/24 03:51:40;;;;;;;;;29.00;26.00;;;;;7.76;64.80;101868.38;2096740;27;47025;-62
2021/11/24 03:52:41;;;;;;;;;32.00;28.75;;;;;7.78;64.84;101863.97;2094785;27;47319;-62
2021/11/24 03:53:42;;;;;;;;;26.20;24.80;;;;;7.78;64.76;101864.84;2099866;28;45263;-62
2021/11/24 03:54:42;;;;;;;;;35.75;28.25;;;;;7.80;64.79;101855.19;2096321;28;46542;-62
2021/11/24 03:55:43;;;;;;;;;30.75;25.50;;;;;7.82;64.69;101858.72;2096813;27;47023;-62
2021/11/24 03:56:43;;;;;;;;;32.50;31.25;;;;;7.84;64.82;101858.72;2091329;28;47327;-62
2021/11/24 03:57:44;;;;;;;;;31.00;29.00;;;;;7.84;64.59;101856.97;2091797;28;45306;-62
2021/11/24 03:58:45;;;;;;;;;21.60;21.40;;;;;7.87;64.74;101850.81;2091750;28;46450;-62
2021/11/24 03:59:45;;;;;;;;;25.00;24.25;;;;;7.86;64.85;101843.75;2091847;28;47254;-62
2021/11/24 04:00:46;;;;;;;;;27.50;25.25;;;;;7.88;64.76;101847.31;2091827;28;45298;-62
2021/11/24 04:01:46;;;;;;;;;29.50;27.75;;;;;7.89;64.67;101852.63;2091753;27;47326;-64
2021/11/24 04:02:47;;;;;;;;;26.25;26.25;;;;;7.91;64.73;101844.69;2091121;28;46587;-62
2021/11/24 04:03:49;;;;;;;;;32.25;27.75;;;;;7.92;64.45;101843.81;2091074;28;47029;-62
2021/11/24 04:04:49;;;;;;;;;35.60;31.60;;;;;7.92;64.57;101844.69;2091189;28;46215;-62
2021/11/24 04:05:52;;;;;;;;;28.25;25.25;;;;;7.92;64.50;101847.34;2092792;28;45427;-62
2021/11/24 04:06:53;;;;;;;;;29.40;29.00;;;;;7.92;64.49;101842.06;2091238;28;47390;-62
2021/11/24 04:07:54;;;;;;;;;29.75;28.25;;;;;7.93;64.43;101840.31;2090979;28;45331;-62
2021/11/24 04:08:54;;;;;;;;;33.75;29.75;;;;;7.92;64.32;101835.88;2107830;27;47077;-62
2021/11/24 04:09:55;;;;;;;;;28.00;26.25;;;;;7.92;64.60;101835.88;2102381;27;46325;-62
2021/11/24 04:10:55;;;;;;;;;30.00;28.00;;;;;7.91;64.21;101840.28;2086369;28;45365;-62
2021/11/24 04:11:56;;;;;;;;;34.75;31.50;;;;;7.90;64.31;101832.34;2091809;28;46559;-62
2021/11/24 04:12:56;;;;;;;;;26.25;25.25;;;;;7.91;64.66;101840.28;2091471;28;46123;-62
2021/11/24 04:13:57;;;;;;;;;32.00;29.25;;;;;7.93;64.41;101837.66;2091663;28;47356;-62
2021/11/24 04:14:58;;;;;;;;;28.25;26.25;;;;;7.93;64.33;101840.31;2091278;28;47103;-61
2021/11/24 04:15:59;;;;;;;;;34.00;30.00;;;;;7.94;64.25;101842.06;2085379;28;46375;-61
2021/11/24 04:17:00;;;;;;;;;34.80;32.00;;;;;7.94;64.25;101836.78;2084163;28;47280;-61
2021/11/24 04:18:01;;;;;;;;;29.75;29.25;;;;;7.95;64.32;101841.19;2091708;27;47008;-62
2021/11/24 04:19:02;;;;;;;;;32.50;28.75;;;;;7.92;64.27;101836.78;2091431;28;47174;-61
2021/11/24 04:20:04;;;;;;;;;32.00;30.80;;;;;7.92;64.07;101838.53;2091847;28;48017;-61
2021/11/24 04:21:05;;;;;;;;;33.00;29.60;;;;;7.92;64.31;101838.53;2091613;28;45585;-62
2021/11/24 04:22:07;;;;;;;;;31.25;29.75;;;;;7.90;64.18;101835.88;2091619;27;48375;-61
2021/11/24 04:23:07;;;;;;;;;33.00;30.00;;;;;7.91;64.35;101831.47;2091793;28;47141;-61
2021/11/24 04:24:08;;;;;;;;;34.75;29.00;;;;;7.90;64.28;101838.53;2099418;28;47406;-61
2021/11/24 04:25:09;;;;;;;;;30.50;27.00;;;;;7.90;64.23;101835.88;2099474;27;46987;-61
2021/11/24 04:26:10;;;;;;;;;32.60;28.40;;;;;7.90;64.23;101832.34;2091756;27;46696;-62
2021/11/24 04:27:10;;;;;;;;;29.50;29.25;;;;;7.90;64.34;101833.25;2091680;28;47384;-61
2021/11/24 04:28:11;;;;;;;;;30.25;28.50;;;;;7.89;64.35;101833.22;2091353;28;48194;-62
2021/11/24 04:29:11;;;;;;;;;29.25;28.50;;;;;7.89;64.61;101831.47;2091861;28;46292;-63
2021/11/24 04:30:13;;;;;;;;;34.50;29.75;;;;;7.89;64.45;101820.91;2091793;28;46519;-61
2021/11/24 04:31:14;;;;;;;;;30.40;30.40;;;;;7.89;64.16;101823.53;2099546;28;47572;-62
2021/11/24 04:32:17;;;;;;;;;30.25;29.75;;;;;7.90;64.38;101819.16;2099445;27;47009;-61
2021/11/24 04:33:17;;;;;;;;;31.20;26.00;;;;;7.90;64.34;101820.03;2090823;28;45464;-62
2021/11/24 04:34:18;;;;;;;;;31.50;29.25;;;;;7.90;64.11;101819.16;2099485;27;46147;-62
2021/11/24 04:35:19;;;;;;;;;29.00;23.75;;;;;7.89;64.12;101815.63;2107203;27;46862;-62
2021/11/24 04:36:19;;;;;;;;;36.80;34.80;;;;;7.89;64.61;101828.84;2099373;28;46880;-61
2021/11/24 04:37:20;;;;;;;;;30.00;28.25;;;;;7.88;64.21;101812.97;2090841;28;47351;-61
2021/11/24 04:38:20;;;;;;;;;33.50;32.00;;;;;7.89;64.19;101810.34;2090981;28;47090;-61
2021/11/24 04:39:21;;;;;;;;;38.00;30.75;;;;;7.88;64.19;101815.63;2091212;28;47509;-61
2021/11/24 04:40:21;;;;;;;;;34.50;33.25;;;;;7.86;64.05;101818.22;2091723;27;45351;-61